Time;durP1;ratioP1;P1;durP2;ratioP2;P2;SDS_P1;SDS_P2;PMS_P1;PMS_P2;Temp;Humidity;BMP_temperature;BMP_pressure;BME280_temperature;BME280_humidity;BME280_pressure;Samples;Min_cycle;Max_cycle;Signal;HPM_P1;HPM_P2
2023/02/21 02:15:32;;;;;;;147.75;75.00;;;7.80;99.90;;;;;;5025148;28;20034;-80
2023/02/21 02:18:11;;;;;;;139.70;73.15;;;7.80;99.90;;;;;;5029377;28;20032;-80
2023/02/21 02:21:30;;;;;;;137.23;73.82;;;7.80;99.90;;;;;;5015266;28;20029;-80
2023/02/21 02:24:15;;;;;;;135.50;72.57;;;7.80;99.90;;;;;;4952436;29;20043;-80
2023/02/21 02:26:49;;;;;;;132.68;71.03;;;7.70;99.90;;;;;;4952695;29;20042;-80
2023/02/21 02:29:43;;;;;;;137.15;74.07;;;7.70;99.90;;;;;;5011274;28;20072;-80
2023/02/21 02:32:30;;;;;;;132.25;72.10;;;7.70;99.90;;;;;;5027104;28;20022;-80
2023/02/21 02:35:14;;;;;;;138.25;71.05;;;7.70;99.90;;;;;;5031368;28;20026;-80
2023/02/21 02:38:11;;;;;;;136.82;73.80;;;7.60;99.90;;;;;;5030074;28;20530;-80
2023/02/21 02:41:08;;;;;;;135.05;71.82;;;7.60;99.90;;;;;;5031751;28;20021;-80
2023/02/21 02:43:50;;;;;;;142.73;71.85;;;7.60;99.90;;;;;;5029967;28;20017;-81
2023/02/21 02:46:27;;;;;;;145.20;74.20;;;7.60;99.90;;;;;;5014061;28;20026;-80
2023/02/21 02:48:59;;;;;;;136.10;73.32;;;7.60;99.90;;;;;;5025412;28;20117;-80
2023/02/21 02:51:25;;;;;;;141.82;74.70;;;7.60;99.90;;;;;;5015515;28;20025;-80
2023/02/21 02:53:51;;;;;;;139.25;75.47;;;7.60;99.90;;;;;;5034376;28;20030;-80
2023/02/21 02:56:17;;;;;;;142.77;74.85;;;7.50;99.90;;;;;;5034445;28;20026;-80
2023/02/21 02:58:43;;;;;;;139.18;73.03;;;7.50;99.90;;;;;;4995876;28;1114330;-80
2023/02/21 03:01:33;;;;;;;134.27;74.18;;;7.60;99.90;;;;;;5031339;28;20033;-80
2023/02/21 03:04:07;;;;;;;136.45;74.80;;;7.50;99.90;;;;;;5035419;28;20444;-80
2023/02/21 03:06:59;;;;;;;136.05;70.80;;;7.50;99.90;;;;;;5033716;28;20035;-81
2023/02/21 03:09:39;;;;;;;134.85;73.10;;;7.50;99.90;;;;;;5031858;28;20025;-80
2023/02/21 03:12:21;;;;;;;124.00;69.03;;;7.50;99.90;;;;;;5030468;28;20030;-81
2023/02/21 03:14:57;;;;;;;136.98;71.93;;;7.50;99.90;;;;;;5009139;28;20026;-80
2023/02/21 03:17:27;;;;;;;135.55;75.15;;;7.40;99.90;;;;;;5034284;28;20558;-81
2023/02/21 03:19:56;;;;;;;133.38;71.68;;;7.50;99.90;;;;;;5044866;28;20056;-81
2023/02/21 03:22:26;;;;;;;131.60;70.65;;;7.50;99.90;;;;;;5015221;28;20065;-80
2023/02/21 03:24:53;;;;;;;132.98;71.97;;;7.50;99.90;;;;;;5015088;28;20128;-81
2023/02/21 03:27:21;;;;;;;133.07;72.22;;;7.50;99.90;;;;;;5028999;28;20033;-81
2023/02/21 03:29:47;;;;;;;134.80;69.93;;;7.50;99.90;;;;;;5031021;28;20036;-81
2023/02/21 03:32:37;;;;;;;134.32;71.88;;;7.50;99.90;;;;;;5024552;28;20026;-80
2023/02/21 03:35:04;;;;;;;131.63;70.90;;;7.50;99.90;;;;;;5046789;28;20033;-80
2023/02/21 03:37:34;;;;;;;130.85;70.70;;;7.50;99.90;;;;;;5032660;28;20436;-81
2023/02/21 03:40:01;;;;;;;134.07;69.82;;;7.40;99.90;;;;;;5032503;28;20059;-81
2023/02/21 03:42:26;;;;;;;138.05;72.55;;;7.40;99.90;;;;;;5032737;28;20032;-80
2023/02/21 03:44:52;;;;;;;135.82;73.28;;;7.40;99.90;;;;;;5003855;28;20026;-81
2023/02/21 03:47:18;;;;;;;136.52;70.97;;;7.40;99.90;;;;;;5032201;28;20108;-81
2023/02/21 03:49:43;;;;;;;131.07;71.40;;;7.40;99.90;;;;;;5032297;28;20068;-81
2023/02/21 03:52:13;;;;;;;124.05;71.50;;;7.40;99.90;;;;;;5032583;28;20033;-80
2023/02/21 03:54:40;;;;;;;131.88;70.32;;;7.40;99.90;;;;;;5032297;28;20021;-80
2023/02/21 03:57:05;;;;;;;139.77;74.03;;;7.30;99.90;;;;;;5010562;28;20128;-80
2023/02/21 03:59:31;;;;;;;136.30;72.78;;;7.30;99.90;;;;;;5021915;28;20112;-81
2023/02/21 04:01:57;;;;;;;134.35;72.47;;;7.40;99.90;;;;;;5012402;28;20041;-80
2023/02/21 04:04:23;;;;;;;133.18;70.75;;;7.30;99.90;;;;;;5032362;28;20484;-80
2023/02/21 04:06:48;;;;;;;135.13;70.63;;;7.30;99.90;;;;;;5011403;28;20026;-80
2023/02/21 04:09:14;;;;;;;137.38;72.75;;;7.40;99.90;;;;;;5032045;28;20076;-81
2023/02/21 04:11:44;;;;;;;132.05;69.50;;;7.30;99.90;;;;;;5031842;28;20017;-81
2023/02/21 04:14:10;;;;;;;140.57;72.50;;;7.30;99.90;;;;;;5032120;28;20018;-80
2023/02/21 04:16:36;;;;;;;127.75;68.03;;;7.30;99.90;;;;;;5011249;28;20022;-81
2023/02/21 04:19:02;;;;;;;139.15;70.80;;;7.30;99.90;;;;;;5014084;28;20086;-81
2023/02/21 04:21:27;;;;;;;136.60;71.20;;;7.30;99.90;;;;;;5032319;28;20076;-80
2023/02/21 04:23:53;;;;;;;129.90;69.57;;;7.30;99.90;;;;;;5014152;28;20048;-80
2023/02/21 04:26:19;;;;;;;131.13;70.13;;;7.30;99.90;;;;;;5003303;28;20476;-80
2023/02/21 04:28:47;;;;;;;136.57;71.60;;;7.20;99.90;;;;;;5031937;28;20033;-80
2023/02/21 04:31:15;;;;;;;136.73;72.63;;;7.20;99.90;;;;;;5027908;28;20052;-81
2023/02/21 04:33:42;;;;;;;134.27;69.18;;;7.20;99.90;;;;;;5028051;28;20025;-81
2023/02/21 04:36:08;;;;;;;130.82;71.25;;;7.20;99.90;;;;;;5010929;28;20022;-80
2023/02/21 04:38:33;;;;;;;134.55;70.15;;;7.20;99.90;;;;;;5031651;28;20040;-80
2023/02/21 04:40:59;;;;;;;134.68;71.90;;;7.20;99.90;;;;;;5031772;28;20052;-80
2023/02/21 04:43:25;;;;;;;140.40;72.30;;;7.20;99.90;;;;;;5031810;28;20624;-80
2023/02/21 04:45:51;;;;;;;139.95;72.50;;;7.10;99.90;;;;;;5031791;28;20030;-80
2023/02/21 04:48:17;;;;;;;136.32;70.50;;;7.10;99.90;;;;;;5021537;28;20029;-80
2023/02/21 04:50:46;;;;;;;131.27;69.63;;;7.10;99.90;;;;;;5013952;28;20036;-80
2023/02/21 04:53:12;;;;;;;126.53;67.80;;;7.10;99.90;;;;;;5031671;28;20108;-80
2023/02/21 04:55:38;;;;;;;131.88;70.38;;;7.10;99.90;;;;;;5014081;28;20060;-80
2023/02/21 04:58:04;;;;;;;138.50;71.68;;;7.10;99.90;;;;;;5031290;28;20045;-81
2023/02/21 05:00:30;;;;;;;135.25;71.95;;;7.10;99.90;;;;;;5023929;28;20125;-80
2023/02/21 05:02:56;;;;;;;134.23;71.55;;;7.10;99.90;;;;;;5030671;28;20100;-81
2023/02/21 05:05:21;;;;;;;131.02;68.72;;;7.20;99.90;;;;;;5031595;28;20059;-81
2023/02/21 05:07:47;;;;;;;135.85;69.72;;;7.20;99.90;;;;;;5031253;28;20106;-81
2023/02/21 05:10:14;;;;;;;119.93;66.95;;;7.10;99.90;;;;;;5031699;28;20036;-81
2023/02/21 05:12:40;;;;;;;120.93;66.95;;;7.00;99.90;;;;;;5022451;28;20029;-81
2023/02/21 05:15:07;;;;;;;123.97;69.47;;;6.80;99.90;;;;;;5031507;28;20451;-81
2023/02/21 05:17:33;;;;;;;122.38;68.22;;;6.70;99.90;;;;;;5031231;28;20503;-81
2023/02/21 05:19:58;;;;;;;141.32;70.97;;;6.70;99.90;;;;;;5046348;28;20056;-81
2023/02/21 05:22:24;;;;;;;132.05;69.53;;;6.70;99.90;;;;;;5013612;28;20416;-80
2023/02/21 05:24:50;;;;;;;129.95;70.60;;;6.70;99.90;;;;;;5031367;28;20041;-81
2023/02/21 05:27:18;;;;;;;132.32;69.55;;;6.60;99.90;;;;;;5010181;28;20022;-80
2023/02/21 05:29:48;;;;;;;129.65;68.00;;;6.50;99.90;;;;;;5026620;28;20461;-81
2023/02/21 05:32:15;;;;;;;133.90;70.45;;;6.40;99.90;;;;;;5022921;28;20470;-81
2023/02/21 05:34:43;;;;;;;136.88;71.50;;;6.50;99.90;;;;;;5029866;28;20071;-80
2023/02/21 05:37:10;;;;;;;138.05;72.03;;;6.60;99.90;;;;;;5034067;28;20021;-81
2023/02/21 05:39:36;;;;;;;131.65;69.97;;;6.70;99.90;;;;;;5026169;28;20396;-81
2023/02/21 05:42:01;;;;;;;137.02;69.65;;;6.70;99.90;;;;;;5034829;28;20025;-81
2023/02/21 05:44:27;;;;;;;127.63;67.65;;;6.80;99.90;;;;;;5034897;28;20116;-81
2023/02/21 05:46:53;;;;;;;127.18;68.95;;;6.70;99.90;;;;;;5034709;28;20440;-81
2023/02/21 05:49:18;;;;;;;131.57;69.75;;;6.70;99.90;;;;;;5034500;28;20079;-80
2023/02/21 05:51:45;;;;;;;138.50;70.00;;;6.70;99.90;;;;;;5034696;28;20108;-80
2023/02/21 05:54:15;;;;;;;129.63;68.88;;;6.60;99.90;;;;;;5034262;28;20029;-81
2023/02/21 05:56:43;;;;;;;131.98;69.20;;;6.70;99.90;;;;;;5025801;28;20029;-80
2023/02/21 05:59:09;;;;;;;129.63;67.45;;;6.50;99.90;;;;;;5034180;28;20491;-81
2023/02/21 06:01:35;;;;;;;136.82;71.13;;;6.60;99.90;;;;;;5031814;28;20402;-81
2023/02/21 06:04:00;;;;;;;135.07;70.78;;;6.60;99.90;;;;;;5016349;28;20033;-81
2023/02/21 06:06:26;;;;;;;131.88;70.15;;;6.60;99.90;;;;;;5016237;28;20125;-81
2023/02/21 06:08:51;;;;;;;140.15;72.00;;;6.60;99.90;;;;;;5033690;28;20087;-80
2023/02/21 06:11:30;;;;;;;132.70;70.13;;;6.50;99.90;;;;;;5016421;28;20036;-81
2023/02/21 06:13:58;;;;;;;143.15;73.75;;;6.50;99.90;;;;;;5025092;28;20025;-81
2023/02/21 06:16:24;;;;;;;134.93;70.45;;;6.50;99.90;;;;;;5016128;28;20370;-81
2023/02/21 06:18:52;;;;;;;131.27;69.53;;;6.60;99.90;;;;;;5033747;28;20116;-81
2023/02/21 06:21:18;;;;;;;138.02;69.07;;;6.60;99.90;;;;;;5021384;28;20017;-80
2023/02/21 06:23:44;;;;;;;128.38;68.65;;;6.60;99.90;;;;;;5025212;28;20025;-81
2023/02/21 06:26:10;;;;;;;135.68;70.05;;;6.60;99.90;;;;;;5033704;28;20025;-81
2023/02/21 06:28:35;;;;;;;132.05;69.47;;;6.60;99.90;;;;;;5033626;28;20033;-81
2023/02/21 06:31:03;;;;;;;135.63;69.78;;;6.60;99.90;;;;;;5030696;28;20030;-80
2023/02/21 06:33:29;;;;;;;126.78;68.13;;;6.60;99.90;;;;;;5029793;28;20048;-81
2023/02/21 06:35:54;;;;;;;137.20;69.95;;;6.60;99.90;;;;;;5023023;28;20108;-80
2023/02/21 06:38:20;;;;;;;132.32;69.32;;;6.60;99.90;;;;;;5033863;28;20025;-81
2023/02/21 06:40:46;;;;;;;134.20;68.45;;;6.70;99.90;;;;;;5034093;28;20064;-80
2023/02/21 06:43:11;;;;;;;133.55;71.05;;;6.60;99.90;;;;;;5034027;28;20068;-81
2023/02/21 06:45:37;;;;;;;135.75;69.20;;;6.70;99.90;;;;;;5034343;28;20112;-81
2023/02/21 06:48:03;;;;;;;127.72;71.30;;;6.70;99.90;;;;;;5033236;28;20037;-80
2023/02/21 06:50:28;;;;;;;134.25;71.20;;;6.70;99.90;;;;;;5034485;28;20029;-80
2023/02/21 06:52:54;;;;;;;137.95;70.22;;;6.70;99.90;;;;;;5016192;28;20583;-81
2023/02/21 06:55:23;;;;;;;126.68;65.70;;;6.70;99.90;;;;;;5033852;28;20389;-80
2023/02/21 06:57:49;;;;;;;133.55;66.85;;;6.70;99.90;;;;;;5033240;28;20099;-81
2023/02/21 07:00:16;;;;;;;129.63;66.85;;;6.70;99.90;;;;;;5032371;28;20029;-81
2023/02/21 07:02:42;;;;;;;149.13;71.32;;;6.70;99.90;;;;;;5029649;28;20466;-81
2023/02/21 07:05:08;;;;;;;134.60;69.70;;;6.80;99.90;;;;;;5033026;28;20105;-81
2023/02/21 07:07:34;;;;;;;136.90;69.03;;;6.80;99.90;;;;;;5033103;28;20022;-81
2023/02/21 07:10:00;;;;;;;135.50;70.22;;;6.90;99.90;;;;;;5022231;28;20552;-80
2023/02/21 07:12:26;;;;;;;138.80;72.88;;;6.90;99.90;;;;;;5028248;28;20026;-80
2023/02/21 07:14:53;;;;;;;140.35;72.05;;;6.90;99.90;;;;;;5012901;28;20474;-81
2023/02/21 07:17:19;;;;;;;136.68;70.63;;;6.90;99.90;;;;;;4996791;28;20026;-81
2023/02/21 07:19:44;;;;;;;130.30;67.85;;;7.00;99.90;;;;;;4996833;28;20029;-81
2023/02/21 07:22:13;;;;;;;127.03;68.00;;;7.00;99.90;;;;;;5014694;28;20022;-80
2023/02/21 07:24:40;;;;;;;140.38;71.53;;;7.10;99.90;;;;;;5014541;28;20022;-80
2023/02/21 07:27:06;;;;;;;130.27;69.38;;;7.10;99.90;;;;;;5013271;28;20396;-81
2023/02/21 07:29:32;;;;;;;128.07;70.82;;;7.20;99.90;;;;;;4998581;28;20026;-80
2023/02/21 07:31:57;;;;;;;130.15;70.15;;;7.30;99.90;;;;;;5016473;28;20434;-80
2023/02/21 07:34:23;;;;;;;136.80;70.13;;;7.30;99.90;;;;;;5026477;28;20028;-80
2023/02/21 07:36:49;;;;;;;130.32;69.00;;;7.40;99.90;;;;;;4996408;28;20105;-80
2023/02/21 07:39:15;;;;;;;137.25;72.00;;;7.50;99.90;;;;;;4998272;28;20115;-81
2023/02/21 07:41:40;;;;;;;136.40;68.53;;;7.50;99.90;;;;;;5033865;28;20065;-81
2023/02/21 07:44:06;;;;;;;138.50;72.63;;;7.50;99.90;;;;;;5033946;28;20480;-80
2023/02/21 07:46:33;;;;;;;135.55;71.38;;;7.60;99.90;;;;;;5012872;28;20026;-80
2023/02/21 07:48:59;;;;;;;135.00;72.25;;;7.70;99.90;;;;;;5012836;28;20397;-80
2023/02/21 07:51:29;;;;;;;139.75;71.75;;;7.70;99.90;;;;;;5014165;28;20017;-80
2023/02/21 07:53:55;;;;;;;137.63;70.70;;;7.80;99.90;;;;;;5013788;28;20026;-81
2023/02/21 07:56:22;;;;;;;137.75;70.82;;;7.80;99.90;;;;;;5014153;28;20532;-80
2023/02/21 07:58:48;;;;;;;134.48;72.43;;;7.90;99.90;;;;;;5013816;28;20080;-81
2023/02/21 08:01:14;;;;;;;153.23;79.10;;;7.90;99.90;;;;;;5006905;28;20026;-81
2023/02/21 08:03:40;;;;;;;162.05;83.18;;;7.90;99.90;;;;;;5033779;28;20087;-81
2023/02/21 08:06:08;;;;;;;160.95;82.32;;;8.00;99.90;;;;;;5029271;28;20435;-81
2023/02/21 08:08:33;;;;;;;161.02;86.32;;;8.00;99.90;;;;;;5030129;28;20400;-81
2023/02/21 08:10:59;;;;;;;164.38;85.03;;;8.00;99.90;;;;;;5033456;28;20030;-81
2023/02/21 08:13:25;;;;;;;164.02;87.82;;;8.00;99.90;;;;;;5032115;28;20025;-81
2023/02/21 08:15:50;;;;;;;166.25;88.88;;;8.10;99.90;;;;;;5015721;28;20032;-81
2023/02/21 08:18:22;;;;;;;171.65;90.88;;;8.10;99.90;;;;;;5033394;28;20079;-81
2023/02/21 08:20:57;;;;;;;167.60;88.53;;;8.10;99.90;;;;;;5033705;28;20029;-81
2023/02/21 08:23:23;;;;;;;165.70;87.03;;;8.10;99.90;;;;;;5011678;28;20029;-81
2023/02/21 08:25:49;;;;;;;174.50;90.15;;;8.10;99.90;;;;;;5033278;28;20025;-81
2023/02/21 08:28:16;;;;;;;177.73;91.50;;;8.10;99.90;;;;;;5032608;28;20397;-81
2023/02/21 08:30:41;;;;;;;164.55;87.20;;;8.20;99.90;;;;;;5028069;28;20014;-81
2023/02/21 08:33:08;;;;;;;165.77;87.70;;;8.20;99.90;;;;;;5019050;28;20025;-77
2023/02/21 08:35:33;;;;;;;172.00;90.32;;;8.30;99.90;;;;;;5014234;28;20021;-77
2023/02/21 08:38:02;;;;;;;165.30;86.22;;;8.30;99.90;;;;;;5014202;28;20485;-77
2023/02/21 08:40:31;;;;;;;166.50;89.60;;;8.30;99.90;;;;;;5022680;28;20112;-77
2023/02/21 08:42:59;;;;;;;168.68;89.57;;;8.30;99.90;;;;;;5010696;28;20026;-77
2023/02/21 08:45:27;;;;;;;169.23;89.28;;;8.40;99.90;;;;;;5031885;28;20037;-77
2023/02/21 08:47:53;;;;;;;167.70;87.15;;;8.40;99.90;;;;;;5022949;28;20477;-77
2023/02/21 08:50:20;;;;;;;172.82;89.95;;;8.30;99.90;;;;;;5031634;28;20025;-77
2023/02/21 08:52:47;;;;;;;171.73;90.45;;;8.40;99.90;;;;;;5031866;28;20412;-77
2023/02/21 08:55:14;;;;;;;165.90;91.53;;;8.50;99.90;;;;;;5022725;28;20435;-77
2023/02/21 08:57:39;;;;;;;166.57;87.88;;;8.50;99.90;;;;;;5031249;28;20091;-77
2023/02/21 09:00:10;;;;;;;175.98;90.28;;;8.50;99.90;;;;;;5027865;28;20030;-77
2023/02/21 09:02:40;;;;;;;165.30;88.55;;;8.60;99.90;;;;;;5020274;28;20405;-77
2023/02/21 09:05:12;;;;;;;170.07;86.97;;;8.70;99.90;;;;;;5047142;28;20080;-77
2023/02/21 09:07:38;;;;;;;169.60;87.40;;;8.70;99.90;;;;;;5028503;28;20030;-77
2023/02/21 09:10:04;;;;;;;163.27;88.05;;;8.80;99.90;;;;;;5013989;28;20504;-77
2023/02/21 09:12:30;;;;;;;168.57;88.18;;;8.80;99.90;;;;;;5035377;28;20113;-77
2023/02/21 09:14:56;;;;;;;167.55;89.88;;;8.90;99.90;;;;;;5035409;28;20540;-77
2023/02/21 09:17:21;;;;;;;167.32;85.85;;;9.00;99.90;;;;;;5035538;28;20055;-77
2023/02/21 09:19:47;;;;;;;168.98;89.20;;;9.00;99.90;;;;;;5035748;28;20496;-77
2023/02/21 09:22:13;;;;;;;159.85;86.57;;;9.10;99.90;;;;;;5017665;28;20496;-77
2023/02/21 09:24:40;;;;;;;164.35;86.93;;;9.10;99.90;;;;;;5035524;28;20528;-77
2023/02/21 09:27:06;;;;;;;163.65;85.72;;;9.20;99.90;;;;;;5035314;28;20086;-77
2023/02/21 09:29:35;;;;;;;156.25;85.38;;;9.20;99.90;;;;;;5033925;28;20026;-77
2023/02/21 09:32:02;;;;;;;155.55;84.88;;;9.20;99.90;;;;;;5029855;28;20181;-77
2023/02/21 09:34:29;;;;;;;153.95;84.40;;;9.20;99.90;;;;;;5025815;28;20025;-77
2023/02/21 09:36:55;;;;;;;156.23;84.78;;;9.30;99.90;;;;;;5031641;28;20021;-77
2023/02/21 09:39:22;;;;;;;156.18;85.20;;;9.30;99.90;;;;;;5035001;28;20025;-77
2023/02/21 09:41:49;;;;;;;160.00;85.20;;;9.30;99.90;;;;;;5026389;28;20060;-77
2023/02/21 09:44:21;;;;;;;159.23;87.38;;;9.40;99.90;;;;;;5035231;28;20029;-76
2023/02/21 09:47:00;;;;;;;;;;;9.40;99.90;;;;;;5032610;28;20026;-77
2023/02/21 09:49:32;;;;;;;162.70;86.18;;;9.60;99.90;;;;;;5034987;28;19913;-77
2023/02/21 09:51:59;;;;;;;;;;;9.50;99.90;;;;;;5035479;28;20021;-77
2023/02/21 09:54:35;;;;;;;158.20;86.85;;;9.60;99.90;;;;;;5034980;28;19959;-77
2023/02/21 09:57:04;;;;;;;157.02;81.95;;;9.60;99.90;;;;;;5031792;28;20029;-77
2023/02/21 09:59:30;;;;;;;168.50;90.55;;;9.70;99.90;;;;;;5016594;28;20053;-77
2023/02/21 10:02:15;;;;;;;157.20;86.50;;;9.80;99.90;;;;;;5027261;28;20108;-77
2023/02/21 10:04:40;;;;;;;163.35;89.07;;;9.80;99.90;;;;;;5015789;28;20041;-77
2023/02/21 10:07:15;;;;;;;161.13;89.22;;;9.80;99.90;;;;;;5024681;28;20034;-76
2023/02/21 10:10:02;;;;;;;162.02;87.55;;;9.90;99.90;;;;;;5025634;28;20033;-77
2023/02/21 10:12:37;;;;;;;168.50;88.40;;;9.90;99.90;;;;;;5033403;28;20028;-77
2023/02/21 10:15:19;;;;;;;165.82;91.60;;;10.00;99.90;;;;;;5035708;28;20017;-77
2023/02/21 10:18:22;;;;;;;169.57;93.25;;;10.10;99.90;;;;;;5017976;28;20021;-77
2023/02/21 10:21:00;;;;;;;179.43;97.53;;;10.20;99.90;;;;;;5035543;28;20044;-77
2023/02/21 10:23:33;;;;;;;185.43;100.18;;;10.30;99.90;;;;;;5035738;28;20457;-77
2023/02/21 10:26:09;;;;;;;193.75;107.28;;;10.20;99.90;;;;;;5035568;28;20020;-77
2023/02/21 10:28:35;;;;;;;197.32;109.35;;;10.20;99.90;;;;;;5035393;28;20038;-77
2023/02/21 10:31:09;;;;;;;195.98;108.25;;;10.40;99.90;;;;;;5035643;28;20105;-77
2023/02/21 10:33:37;;;;;;;196.32;105.22;;;10.30;99.90;;;;;;5015703;28;20022;-77
2023/02/21 10:36:10;;;;;;;194.93;107.43;;;10.40;99.90;;;;;;5014197;28;20037;-76
2023/02/21 10:38:38;;;;;;;186.60;108.70;;;10.40;99.90;;;;;;5015224;28;20029;-77
2023/02/21 10:41:05;;;;;;;190.05;107.45;;;10.40;99.90;;;;;;5014785;28;20026;-77
2023/02/21 10:43:50;;;;;;;191.10;108.43;;;10.40;99.90;;;;;;5017260;28;20424;-77
2023/02/21 10:46:39;;;;;;;189.85;105.93;;;10.40;99.90;;;;;;5050339;28;20435;-77
2023/02/21 10:49:42;;;;;;;186.57;102.55;;;10.50;99.90;;;;;;5033771;28;20393;-77
2023/02/21 10:52:16;;;;;;;177.18;97.25;;;10.60;99.90;;;;;;5014209;28;20018;-77
2023/02/21 10:54:58;;;;;;;179.90;99.63;;;10.60;99.90;;;;;;4997554;28;20057;-77
2023/02/21 10:57:24;;;;;;;183.80;98.93;;;10.70;99.90;;;;;;5015424;28;20022;-77
2023/02/21 10:59:50;;;;;;;186.23;99.47;;;10.70;99.90;;;;;;5034837;28;20064;-77
2023/02/21 11:02:33;;;;;;;174.05;96.50;;;10.80;99.90;;;;;;5049807;28;20029;-77
2023/02/21 11:05:18;;;;;;;179.07;95.68;;;10.90;99.90;;;;;;5034742;28;20029;-77
2023/02/21 11:07:56;;;;;;;170.40;95.13;;;11.00;99.90;;;;;;5034981;28;20029;-77
2023/02/21 11:10:31;;;;;;;168.38;94.05;;;11.10;99.90;;;;;;5016981;28;20025;-77
2023/02/21 11:13:20;;;;;;;169.93;91.40;;;11.20;99.90;;;;;;5034985;28;20021;-76
2023/02/21 11:15:46;;;;;;;168.43;89.75;;;11.20;99.90;;;;;;5016946;28;20478;-77
2023/02/21 11:18:25;;;;;;;163.98;88.97;;;11.30;99.90;;;;;;5034801;28;20021;-77
2023/02/21 11:20:52;;;;;;;169.57;88.85;;;11.30;99.90;;;;;;5034735;28;20032;-77
2023/02/21 11:23:30;;;;;;;171.02;89.18;;;11.30;99.90;;;;;;5034589;28;20083;-77
2023/02/21 11:26:12;;;;;;;162.70;89.68;;;11.40;99.90;;;;;;5006081;28;20528;-77
2023/02/21 11:28:43;;;;;;;176.20;96.13;;;11.50;99.90;;;;;;5014576;28;20498;-77
2023/02/21 11:31:25;;;;;;;158.18;89.35;;;11.60;99.90;;;;;;5029106;28;20028;-76
2023/02/21 11:34:00;;;;;;;173.23;87.55;;;11.60;99.90;;;;;;4996011;28;20029;-77
2023/02/21 11:36:29;;;;;;;169.25;90.55;;;11.70;99.90;;;;;;5015352;28;20477;-76
2023/02/21 11:39:17;;;;;;;166.27;91.30;;;11.70;99.90;;;;;;5034069;28;20127;-77
2023/02/21 11:41:51;;;;;;;162.60;89.57;;;11.70;99.90;;;;;;5022005;28;20116;-77
2023/02/21 11:44:23;;;;;;;166.93;93.43;;;11.70;99.90;;;;;;5033345;28;20025;-77
2023/02/21 11:47:00;;;;;;;165.88;92.30;;;11.70;99.90;;;;;;5012139;28;20126;-77
2023/02/21 11:49:38;;;;;;;160.68;90.88;;;11.80;99.90;;;;;;5033021;28;20075;-77
2023/02/21 11:52:21;;;;;;;163.18;90.22;;;11.90;99.90;;;;;;5023439;28;20032;-77
2023/02/21 11:54:47;;;;;;;162.90;92.30;;;11.90;99.90;;;;;;5032736;28;20389;-76
2023/02/21 11:57:22;;;;;;;171.45;89.22;;;11.90;99.90;;;;;;5014794;28;20026;-77
2023/02/21 12:00:29;;;;;;;163.73;90.30;;;12.00;99.90;;;;;;5015394;28;20033;-76
2023/02/21 12:03:16;;;;;;;174.68;92.35;;;12.10;99.90;;;;;;4932814;29;20402;-77
2023/02/21 12:06:07;;;;;;;158.75;90.47;;;12.10;99.90;;;;;;5002937;28;20482;-77
2023/02/21 12:08:34;;;;;;;171.85;91.75;;;12.20;99.90;;;;;;5045208;28;20377;-77
2023/02/21 12:11:27;;;;;;;161.80;89.88;;;12.20;99.90;;;;;;5027713;28;20120;-77
2023/02/21 12:13:58;;;;;;;171.10;89.15;;;12.20;99.90;;;;;;5026419;28;20032;-77
2023/02/21 12:16:53;;;;;;;161.07;89.85;;;12.20;99.90;;;;;;5023639;28;20029;-77
2023/02/21 12:19:40;;;;;;;167.90;89.72;;;12.20;99.90;;;;;;4995165;28;20511;-77
2023/02/21 12:22:12;;;;;;;165.20;89.43;;;12.20;99.90;;;;;;5012753;28;20037;-77
2023/02/21 12:25:10;;;;;;;167.60;90.63;;;12.20;99.90;;;;;;5028140;28;20611;-77
2023/02/21 12:27:54;;;;;;;164.45;92.55;;;12.30;99.90;;;;;;5031940;28;20022;-76
2023/02/21 12:30:26;;;;;;;165.40;89.80;;;12.30;99.90;;;;;;5027363;28;20500;-77
2023/02/21 12:33:07;;;;;;;;;;;12.30;99.90;;;;;;5016346;28;20021;-77
2023/02/21 12:35:50;;;;;;;160.63;87.15;;;12.30;99.90;;;;;;5032959;28;19955;-77
2023/02/21 12:38:24;;;;;;;165.48;90.45;;;12.20;99.90;;;;;;5031324;28;20045;-77
2023/02/21 12:41:02;;;;;;;171.02;90.90;;;12.20;99.90;;;;;;5017010;28;20030;-77
2023/02/21 12:44:12;;;;;;;170.93;93.53;;;12.20;99.90;;;;;;5032362;28;20032;-77
2023/02/21 12:46:56;;;;;;;174.88;94.35;;;12.30;99.90;;;;;;4954101;28;20134;-76
2023/02/21 12:49:41;;;;;;;162.80;94.00;;;12.30;99.90;;;;;;5025500;28;20401;-80
2023/02/21 12:52:27;;;;;;;163.68;93.50;;;12.30;99.90;;;;;;5029505;28;20017;-80
2023/02/21 12:55:00;;;;;;;166.75;90.63;;;12.40;99.90;;;;;;5029097;28;20436;-80
2023/02/21 12:57:50;;;;;;;166.82;92.05;;;12.50;99.90;;;;;;5031236;28;20048;-79
2023/02/21 13:00:21;;;;;;;168.10;91.70;;;12.60;99.90;;;;;;5027841;28;20397;-80
2023/02/21 13:03:22;;;;;;;174.48;94.60;;;12.70;99.90;;;;;;5022797;28;20114;-80
2023/02/21 13:05:59;;;;;;;173.95;94.40;;;12.60;99.90;;;;;;5027030;28;20064;-80
2023/02/21 13:08:50;;;;;;;164.23;91.85;;;12.70;99.90;;;;;;5027193;28;20050;-80
2023/02/21 13:11:42;;;;;;;175.77;94.00;;;12.80;99.90;;;;;;5017519;28;20931;-80
2023/02/21 13:14:12;;;;;;;176.27;97.68;;;12.70;99.90;;;;;;5001211;28;20041;-80
2023/02/21 13:16:38;;;;;;;179.13;97.65;;;12.60;99.90;;;;;;5028111;28;20027;-80
2023/02/21 13:19:10;;;;;;;179.02;97.72;;;12.60;99.90;;;;;;5046832;28;20354;-79
2023/02/21 13:21:44;;;;;;;172.80;94.90;;;12.60;99.90;;;;;;5022645;28;20048;-80
2023/02/21 13:24:13;;;;;;;172.98;95.70;;;12.70;99.90;;;;;;5028665;28;20024;-80
2023/02/21 13:26:57;;;;;;;176.82;95.93;;;12.70;99.90;;;;;;5031575;28;20021;-80
2023/02/21 13:29:32;;;;;;;170.15;95.45;;;12.70;99.90;;;;;;5029324;28;20025;-80
2023/02/21 13:32:01;;;;;;;168.82;92.30;;;12.80;99.90;;;;;;5040709;28;20393;-79
2023/02/21 13:34:35;;;;;;;172.57;94.22;;;12.90;99.90;;;;;;5031552;28;20512;-79
2023/02/21 13:37:05;;;;;;;174.07;93.80;;;12.90;99.90;;;;;;5031138;28;20055;-79
2023/02/21 13:39:35;;;;;;;164.52;92.47;;;13.00;99.90;;;;;;5013662;28;20504;-80
2023/02/21 13:42:24;;;;;;;167.85;93.93;;;13.10;99.90;;;;;;5031679;28;20075;-79
2023/02/21 13:45:22;;;;;;;170.27;92.63;;;13.10;99.90;;;;;;5030183;28;20022;-79
2023/02/21 13:47:56;;;;;;;166.38;90.78;;;13.20;99.90;;;;;;5023176;28;20095;-79
2023/02/21 13:50:37;;;;;;;162.10;90.88;;;13.20;99.90;;;;;;5013078;28;20443;-80
2023/02/21 13:53:15;;;;;;;164.70;89.90;;;13.20;99.90;;;;;;5028706;28;20069;-79
2023/02/21 13:56:06;;;;;;;164.93;91.68;;;13.10;99.90;;;;;;5031016;28;20079;-80
2023/02/21 13:58:43;;;;;;;165.52;88.57;;;13.10;99.90;;;;;;5031047;28;20058;-79
2023/02/21 14:01:22;;;;;;;154.90;84.70;;;13.10;99.90;;;;;;5031081;28;20033;-79
2023/02/21 14:03:57;;;;;;;153.80;82.75;;;13.10;99.90;;;;;;5032413;28;20485;-79
2023/02/21 14:06:31;;;;;;;150.82;79.35;;;13.10;99.90;;;;;;5034551;28;20021;-79
2023/02/21 14:09:25;;;;;;;151.85;84.60;;;13.10;99.90;;;;;;5034455;28;20124;-80
2023/02/21 14:11:53;;;;;;;143.07;79.55;;;13.10;99.90;;;;;;5005365;28;20022;-79
2023/02/21 14:14:29;;;;;;;150.68;79.60;;;13.10;99.90;;;;;;5034592;28;20018;-79
2023/02/21 14:17:02;;;;;;;145.80;78.78;;;13.10;99.90;;;;;;5034435;28;20028;-79
2023/02/21 14:19:34;;;;;;;143.43;79.22;;;13.10;99.90;;;;;;5046488;28;20028;-79
2023/02/21 14:22:13;;;;;;;140.30;76.30;;;13.10;99.90;;;;;;5034574;28;20063;-80
2023/02/21 14:24:44;;;;;;;141.93;78.75;;;13.10;99.90;;;;;;5031395;28;20500;-79
2023/02/21 14:27:11;;;;;;;146.57;81.03;;;13.20;99.90;;;;;;5016655;28;20033;-79
2023/02/21 14:29:59;;;;;;;146.13;79.03;;;13.20;99.90;;;;;;5032028;28;20048;-80
2023/02/21 14:33:03;;;;;;;147.50;77.88;;;13.20;99.90;;;;;;5013256;28;20026;-80
2023/02/21 14:35:33;;;;;;;142.93;78.80;;;13.30;99.90;;;;;;5000825;28;20041;-80
2023/02/21 14:38:03;;;;;;;140.18;75.97;;;13.30;99.90;;;;;;5033980;28;20032;-80
2023/02/21 14:40:31;;;;;;;147.40;75.85;;;13.20;99.90;;;;;;5049402;28;20108;-79
2023/02/21 14:43:34;;;;;;;146.68;76.35;;;13.20;99.90;;;;;;5034119;28;20087;-79
2023/02/21 14:46:21;;;;;;;140.90;76.35;;;13.20;99.90;;;;;;5030347;28;20492;-79
2023/02/21 14:48:49;;;;;;;133.55;71.25;;;13.20;99.90;;;;;;5028830;28;20040;-80
2023/02/21 14:51:33;;;;;;;145.20;73.72;;;13.10;99.90;;;;;;5016272;28;20059;-79
2023/02/21 14:54:49;;;;;;;136.68;70.40;;;13.10;99.90;;;;;;5030578;28;20436;-79
2023/02/21 14:57:40;;;;;;;132.15;69.55;;;13.00;99.90;;;;;;4996785;28;20030;-80
2023/02/21 15:00:14;;;;;;;125.05;69.68;;;12.90;99.90;;;;;;5027446;28;20041;-80
2023/02/21 15:03:13;;;;;;;128.23;66.63;;;12.90;99.90;;;;;;5033735;28;20021;-79
2023/02/21 15:06:01;;;;;;;121.22;66.53;;;12.80;99.90;;;;;;5006797;28;20037;-80